Time;durP1;ratioP1;P1;durP2;ratioP2;P2;SDS_P1;SDS_P2;PMS_P1;PMS_P2;Temp;Humidity;BMP_temperature;BMP_pressure;BME280_temperature;BME280_humidity;BME280_pressure;Samples;Min_cycle;Max_cycle;Signal;HPM_P1;HPM_P2
2021/11/02 00:01:29;;;;;;;6.18;1.90;;;17.00;72.90;;;;;;5088063;28;20016;-70
2021/11/02 00:03:56;;;;;;;8.60;1.85;;;17.00;73.40;;;;;;5084385;28;20499;-71
2021/11/02 00:06:22;;;;;;;3.97;1.50;;;16.90;73.80;;;;;;5085104;28;20463;-70
2021/11/02 00:08:49;;;;;;;5.45;1.50;;;16.90;73.90;;;;;;5086738;28;20012;-70
2021/11/02 00:11:16;;;;;;;8.15;1.83;;;16.90;73.80;;;;;;5085928;28;20699;-69
2021/11/02 00:13:46;;;;;;;5.35;2.10;;;16.90;73.60;;;;;;5086940;28;20099;-71
2021/11/02 00:16:16;;;;;;;6.13;2.10;;;16.90;73.70;;;;;;5084346;28;20012;-69
2021/11/02 00:18:47;;;;;;;8.63;1.75;;;16.90;73.80;;;;;;5084909;28;20073;-71
2021/11/02 00:21:14;;;;;;;8.25;1.35;;;16.90;74.10;;;;;;5086242;28;20024;-69
2021/11/02 00:23:41;;;;;;;4.07;1.20;;;16.90;74.10;;;;;;5086504;28;20012;-69
2021/11/02 00:26:11;;;;;;;7.55;1.70;;;16.90;74.20;;;;;;5087437;28;20876;-70
2021/11/02 00:28:39;;;;;;;7.32;1.10;;;16.90;74.20;;;;;;5085941;28;20028;-69
2021/11/02 00:31:06;;;;;;;11.15;2.47;;;16.90;73.80;;;;;;5087893;28;20024;-69
2021/11/02 00:33:32;;;;;;;11.15;1.60;;;16.80;73.20;;;;;;5084455;28;20127;-71
2021/11/02 00:35:59;;;;;;;8.07;1.25;;;16.80;73.30;;;;;;5087352;28;20416;-69
2021/11/02 00:38:26;;;;;;;5.85;1.98;;;16.90;73.90;;;;;;5086648;28;20031;-68
2021/11/02 00:40:52;;;;;;;10.27;2.58;;;16.80;73.50;;;;;;5086627;28;20012;-70
2021/11/02 00:43:19;;;;;;;4.15;1.00;;;16.70;73.70;;;;;;5084328;28;20065;-69
2021/11/02 00:45:46;;;;;;;9.25;1.58;;;16.70;73.90;;;;;;5085983;28;20036;-72
2021/11/02 00:48:23;;;;;;;7.05;1.85;;;16.70;74.40;;;;;;5086560;28;20025;-69
2021/11/02 00:50:50;;;;;;;5.03;1.92;;;16.70;74.30;;;;;;5086117;28;20474;-68
2021/11/02 00:53:16;;;;;;;9.90;2.50;;;16.70;74.00;;;;;;5086986;28;20054;-70
2021/11/02 00:55:43;;;;;;;6.70;1.70;;;16.60;74.10;;;;;;5086622;28;20115;-71
2021/11/02 00:58:10;;;;;;;6.78;1.58;;;16.60;74.40;;;;;;5086657;28;20390;-69
2021/11/02 01:00:37;;;;;;;17.65;2.08;;;16.50;74.60;;;;;;5085934;28;20028;-69
2021/11/02 01:03:05;;;;;;;5.15;1.65;;;16.50;74.60;;;;;;5084485;28;20532;-70
2021/11/02 01:05:33;;;;;;;7.50;1.52;;;16.50;75.00;;;;;;5088370;28;20024;-69
2021/11/02 01:08:00;;;;;;;7.05;1.40;;;16.40;75.00;;;;;;5090511;28;20065;-69
2021/11/02 01:10:27;;;;;;;4.43;1.42;;;16.40;74.90;;;;;;5089834;28;20073;-70
2021/11/02 01:12:54;;;;;;;5.93;1.10;;;16.40;75.20;;;;;;5090364;28;20471;-70
2021/11/02 01:15:25;;;;;;;6.68;1.45;;;16.30;75.10;;;;;;5090275;28;20463;-69
2021/11/02 01:17:51;;;;;;;3.65;1.40;;;16.30;75.20;;;;;;5091114;28;20050;-73
2021/11/02 01:20:18;;;;;;;7.25;2.85;;;16.20;75.20;;;;;;5089491;28;20098;-69
2021/11/02 01:22:47;;;;;;;8.90;1.58;;;16.20;75.50;;;;;;5089487;28;20016;-73
2021/11/02 01:25:16;;;;;;;12.02;1.50;;;16.20;75.40;;;;;;5089394;28;20020;-69
2021/11/02 01:27:43;;;;;;;6.03;2.00;;;16.10;75.60;;;;;;5089074;28;20637;-70
2021/11/02 01:30:11;;;;;;;6.70;2.42;;;16.10;75.80;;;;;;5089968;28;20483;-69
2021/11/02 01:32:39;;;;;;;6.25;1.63;;;16.10;75.70;;;;;;5090331;28;20595;-70
2021/11/02 01:35:06;;;;;;;7.18;2.80;;;16.10;75.60;;;;;;5090286;28;20016;-69
2021/11/02 01:37:34;;;;;;;3.05;1.13;;;16.00;75.60;;;;;;5088326;28;20534;-69
2021/11/02 01:40:01;;;;;;;4.90;1.85;;;16.00;75.70;;;;;;5088745;28;20485;-69
2021/11/02 01:42:28;;;;;;;7.88;2.28;;;16.00;75.40;;;;;;5087771;28;20546;-69
2021/11/02 01:44:55;;;;;;;7.20;1.40;;;16.00;75.30;;;;;;5090475;28;20016;-69
2021/11/02 01:47:23;;;;;;;8.98;3.58;;;15.90;75.30;;;;;;5087536;28;20066;-69
2021/11/02 01:49:50;;;;;;;5.20;2.35;;;15.90;75.40;;;;;;5090805;28;20069;-69
2021/11/02 01:52:17;;;;;;;8.65;1.80;;;16.00;75.40;;;;;;5087517;28;20104;-71
2021/11/02 01:54:44;;;;;;;8.23;2.17;;;15.90;75.30;;;;;;5088869;28;20852;-69
2021/11/02 01:57:10;;;;;;;6.03;2.50;;;15.90;75.40;;;;;;5090944;28;20031;-69
2021/11/02 01:59:38;;;;;;;11.00;2.30;;;15.90;75.30;;;;;;5089015;28;20302;-68
2021/11/02 02:02:12;;;;;;;7.65;2.20;;;15.90;75.10;;;;;;5090314;28;20013;-69
2021/11/02 02:04:49;;;;;;;5.53;2.17;;;15.90;75.30;;;;;;5088658;28;20012;-71
2021/11/02 02:07:25;;;;;;;8.32;2.22;;;15.80;74.70;;;;;;5089369;28;20028;-68
2021/11/02 02:10:13;;;;;;;10.75;2.40;;;15.80;74.80;;;;;;5088823;28;20027;-68
2021/11/02 02:13:16;;;;;;;8.80;1.95;;;15.80;74.30;;;;;;5088361;28;20016;-69
2021/11/02 02:16:08;;;;;;;3.75;1.70;;;15.80;73.70;;;;;;5089017;28;20052;-68
2021/11/02 02:18:39;;;;;;;8.07;1.92;;;15.90;73.70;;;;;;5088118;28;20012;-69
2021/11/02 02:21:56;;;;;;;7.88;1.67;;;15.90;73.30;;;;;;5088690;28;20570;-72
2021/11/02 02:24:42;;;;;;;2.38;1.30;;;15.90;73.20;;;;;;5055772;28;21493;-68
2021/11/02 02:27:43;;;;;;;8.35;2.22;;;15.80;72.90;;;;;;5088835;28;20020;-70
2021/11/02 02:30:16;;;;;;;8.30;1.83;;;15.80;73.00;;;;;;5062384;28;20032;-70
2021/11/02 02:32:48;;;;;;;7.63;1.50;;;15.90;72.70;;;;;;5089755;28;20020;-68
2021/11/02 02:35:18;;;;;;;7.40;1.67;;;15.80;72.60;;;;;;5088409;28;20055;-68
2021/11/02 02:37:47;;;;;;;7.05;1.50;;;15.80;72.60;;;;;;5087609;28;20048;-71
2021/11/02 02:40:14;;;;;;;7.03;1.67;;;15.80;72.70;;;;;;5088874;28;20057;-68
2021/11/02 02:42:44;;;;;;;11.95;2.33;;;15.80;72.60;;;;;;5088002;28;20102;-72
2021/11/02 02:45:15;;;;;;;3.88;1.73;;;15.80;72.60;;;;;;5103243;28;20387;-68
2021/11/02 02:47:44;;;;;;;6.60;2.28;;;15.80;72.90;;;;;;5087823;28;20028;-68
2021/11/02 02:50:12;;;;;;;5.50;1.60;;;15.80;72.60;;;;;;5089104;28;20020;-68
2021/11/02 02:52:41;;;;;;;5.35;1.80;;;15.70;72.60;;;;;;5089139;28;20024;-72
2021/11/02 02:55:09;;;;;;;7.30;2.17;;;15.70;72.80;;;;;;5088755;28;20515;-68
2021/11/02 02:57:36;;;;;;;11.60;3.05;;;15.70;73.10;;;;;;5089741;28;20048;-69
2021/11/02 03:00:05;;;;;;;12.70;2.45;;;15.70;73.00;;;;;;5086325;28;20005;-71
2021/11/02 03:02:32;;;;;;;7.63;2.05;;;15.60;73.20;;;;;;5088900;28;20031;-68
2021/11/02 03:05:02;;;;;;;8.95;1.98;;;15.60;73.00;;;;;;5087768;28;20065;-67
2021/11/02 03:07:29;;;;;;;9.77;2.33;;;15.60;73.00;;;;;;5088531;28;20383;-71
2021/11/02 03:09:55;;;;;;;5.20;1.40;;;15.60;73.30;;;;;;5087612;28;20365;-68
2021/11/02 03:12:28;;;;;;;10.20;1.85;;;15.60;72.90;;;;;;5087771;28;20042;-68
2021/11/02 03:15:12;;;;;;;10.52;2.03;;;15.60;72.90;;;;;;5088255;28;20103;-69
2021/11/02 03:18:21;;;;;;;8.13;2.72;;;15.60;73.10;;;;;;5086354;28;20020;-73
2021/11/02 03:51:09;;;;;;;3.75;1.52;;;15.60;72.60;;;;;;5085684;28;20020;-65
2021/11/02 04:29:35;;;;;;;9.25;2.95;;;15.80;73.40;;;;;;5085587;28;20020;-69
2021/11/02 04:46:04;;;;;;;6.10;1.83;;;15.90;73.00;;;;;;5084277;28;20020;-68
2021/11/02 04:57:53;;;;;;;4.65;2.15;;;15.90;72.40;;;;;;5084457;28;20040;-67
2021/11/02 05:11:00;;;;;;;4.45;1.45;;;16.20;70.80;;;;;;5083536;28;20027;-68
2021/11/02 05:47:59;;;;;;;10.05;3.50;;;16.80;69.20;;;;;;5086993;28;20069;-68
2021/11/02 05:55:50;;;;;;;14.23;3.10;;;17.00;69.10;;;;;;5085325;28;20111;-69
2021/11/02 05:58:29;;;;;;;8.73;1.80;;;17.00;68.90;;;;;;5088719;28;20067;-68
2021/11/02 06:01:04;;;;;;;4.22;1.60;;;17.10;69.10;;;;;;5089716;28;20107;-69
2021/11/02 06:03:53;;;;;;;4.63;1.55;;;17.10;69.20;;;;;;5089985;28;20440;-69
2021/11/02 06:06:46;;;;;;;14.70;2.90;;;17.20;68.90;;;;;;5088529;28;20127;-68
2021/11/02 06:09:27;;;;;;;6.88;1.70;;;17.30;68.50;;;;;;5088327;28;20501;-69
2021/11/02 06:29:18;;;;;;;3.28;1.25;;;17.70;66.30;;;;;;5088732;28;20613;-69
2021/11/02 06:31:57;;;;;;;5.15;1.83;;;17.70;66.90;;;;;;5088395;28;20020;-69
2021/11/02 06:34:36;;;;;;;5.95;1.30;;;17.80;66.70;;;;;;5089257;28;20048;-69
2021/11/02 06:48:55;;;;;;;2.72;1.05;;;18.10;65.50;;;;;;5089284;28;20419;-68
2021/11/02 06:54:24;;;;;;;5.97;1.80;;;18.20;65.00;;;;;;5085862;28;20031;-69
2021/11/02 07:17:30;;;;;;;5.13;0.90;;;18.90;60.10;;;;;;5088250;28;20058;-69
2021/11/02 08:47:24;;;;;;;2.47;0.80;;;20.50;44.60;;;;;;5085083;28;20101;-69
2021/11/02 08:49:51;;;;;;;2.35;1.02;;;20.60;44.30;;;;;;5086652;28;20020;-69
2021/11/02 08:52:20;;;;;;;3.33;0.65;;;20.60;44.40;;;;;;5085115;28;20024;-70
2021/11/02 08:54:48;;;;;;;2.67;0.70;;;20.60;44.70;;;;;;5085264;28;20058;-69
2021/11/02 08:57:16;;;;;;;2.92;0.57;;;20.70;45.20;;;;;;5087133;28;20016;-69
2021/11/02 08:59:44;;;;;;;2.97;0.70;;;20.80;44.70;;;;;;5086262;28;20016;-68
2021/11/02 09:02:12;;;;;;;3.35;1.08;;;20.90;44.10;;;;;;5087018;28;20479;-69
2021/11/02 09:04:48;;;;;;;4.28;0.60;;;20.90;44.00;;;;;;5085475;28;20400;-69
2021/11/02 09:07:18;;;;;;;;;;;20.90;43.50;;;;;;5087399;28;20605;-69
2021/11/02 09:09:48;;;;;;;2.92;0.57;;;21.00;44.30;;;;;;5086794;28;19908;-69
2021/11/02 09:12:16;;;;;;;0.60;0.30;;;21.10;43.80;;;;;;5085772;28;20019;-69
2021/11/02 09:14:48;;;;;;;3.10;0.80;;;21.10;43.00;;;;;;5087307;28;20012;-70
2021/11/02 09:17:16;;;;;;;6.15;0.77;;;21.20;43.10;;;;;;5086136;28;20038;-69
2021/11/02 09:19:43;;;;;;;2.45;1.02;;;21.20;43.30;;;;;;5086362;28;20013;-69
2021/11/02 09:22:12;;;;;;;2.10;0.70;;;21.20;43.20;;;;;;5086728;28;20490;-69
2021/11/02 09:24:42;;;;;;;2.20;0.70;;;21.40;43.00;;;;;;5087024;28;20483;-69
2021/11/02 09:27:12;;;;;;;1.00;0.52;;;21.40;42.80;;;;;;5088340;28;20034;-70
2021/11/02 09:29:39;;;;;;;2.65;0.65;;;21.50;42.30;;;;;;5090211;28;20375;-69
2021/11/02 09:32:10;;;;;;;1.52;0.85;;;21.50;42.30;;;;;;5089953;28;20028;-70
2021/11/02 09:34:37;;;;;;;1.85;0.50;;;21.60;41.70;;;;;;5086633;28;20551;-69
2021/11/02 09:37:13;;;;;;;1.95;0.40;;;21.70;40.90;;;;;;5088600;28;20024;-69
2021/11/02 09:39:44;;;;;;;1.70;0.73;;;21.70;41.00;;;;;;5090648;28;20020;-69
2021/11/02 09:42:34;;;;;;;1.52;0.40;;;21.70;40.90;;;;;;5089961;28;20387;-69
2021/11/02 09:45:32;;;;;;;2.33;0.60;;;21.70;41.20;;;;;;5090484;28;20106;-69
2021/11/02 09:48:31;;;;;;;1.67;0.65;;;21.80;40.50;;;;;;5089863;28;20027;-70
2021/11/02 09:51:22;;;;;;;3.10;0.47;;;21.80;40.80;;;;;;5088739;28;20023;-69
2021/11/02 09:53:53;;;;;;;1.25;0.52;;;21.80;41.60;;;;;;5090951;28;20020;-70
2021/11/02 09:56:48;;;;;;;3.72;0.50;;;21.90;40.90;;;;;;5089100;28;20034;-69
2021/11/02 09:59:39;;;;;;;2.53;0.47;;;21.90;39.20;;;;;;5089547;28;20016;-70
2021/11/02 10:02:08;;;;;;;2.42;0.70;;;21.90;39.80;;;;;;5090851;28;20020;-70
2021/11/02 10:04:52;;;;;;;1.55;0.68;;;21.90;40.60;;;;;;5088720;28;20024;-70
2021/11/02 10:07:30;;;;;;;1.20;0.30;;;22.00;40.60;;;;;;5089288;28;20032;-69
2021/11/02 10:10:10;;;;;;;1.38;0.52;;;22.00;39.60;;;;;;5089129;28;20556;-69
2021/11/02 10:12:58;;;;;;;3.08;0.90;;;21.90;40.50;;;;;;5085359;28;20170;-69
2021/11/02 10:15:49;;;;;;;2.70;0.75;;;22.00;39.70;;;;;;5089857;28;20021;-69
2021/11/02 10:18:19;;;;;;;2.17;0.57;;;22.10;42.30;;;;;;5088204;28;20017;-70
2021/11/02 10:21:07;;;;;;;4.03;0.57;;;22.10;41.60;;;;;;5089483;28;20020;-69
2021/11/02 10:23:39;;;;;;;1.60;0.65;;;22.20;41.40;;;;;;5088057;28;20024;-69
2021/11/02 10:26:26;;;;;;;1.30;0.60;;;22.20;40.40;;;;;;5088844;28;20028;-69
2021/11/02 10:29:02;;;;;;;2.28;0.65;;;22.20;40.40;;;;;;5088380;28;20381;-69
2021/11/02 10:31:55;;;;;;;0.90;0.70;;;22.20;40.20;;;;;;5087267;28;20017;-69
2021/11/02 10:34:58;;;;;;;1.67;0.38;;;22.30;40.40;;;;;;5058240;28;20047;-69
2021/11/02 10:37:26;;;;;;;3.53;1.10;;;22.30;41.50;;;;;;5058086;28;20047;-69
2021/11/02 10:40:05;;;;;;;4.97;0.98;;;22.40;41.40;;;;;;5087695;28;20093;-69
2021/11/02 10:42:37;;;;;;;3.40;0.88;;;22.40;41.50;;;;;;5088996;28;20490;-69
2021/11/02 10:45:09;;;;;;;2.08;0.90;;;22.40;42.40;;;;;;5089545;28;20056;-69
2021/11/02 10:47:56;;;;;;;2.20;0.90;;;22.50;44.40;;;;;;5088380;28;20028;-69
2021/11/02 10:50:26;;;;;;;3.20;0.82;;;22.50;43.00;;;;;;5089501;28;20467;-69
2021/11/02 10:52:57;;;;;;;1.15;0.70;;;22.60;42.40;;;;;;5086000;28;20020;-69
2021/11/02 10:55:32;;;;;;;2.60;0.82;;;22.70;41.90;;;;;;5089110;28;20379;-69
2021/11/02 10:58:11;;;;;;;1.25;0.57;;;22.80;42.60;;;;;;5088402;28;20020;-69
2021/11/02 11:00:40;;;;;;;4.30;0.60;;;22.90;42.10;;;;;;5088244;28;20052;-69
2021/11/02 11:03:10;;;;;;;3.70;0.63;;;22.90;39.80;;;;;;5088826;28;20046;-70
2021/11/02 11:05:38;;;;;;;0.70;0.50;;;22.90;38.90;;;;;;5087438;28;20051;-70
2021/11/02 11:08:05;;;;;;;2.38;0.47;;;22.90;39.30;;;;;;5087311;28;20039;-69
2021/11/02 11:10:32;;;;;;;6.25;0.80;;;22.90;39.80;;;;;;5086193;28;20050;-70
2021/11/02 11:13:02;;;;;;;4.15;1.17;;;22.90;39.40;;;;;;5088454;28;20042;-69
2021/11/02 11:15:34;;;;;;;6.03;2.35;;;22.90;39.00;;;;;;5087963;28;20044;-70
2021/11/02 11:18:07;;;;;;;3.00;0.88;;;23.00;40.10;;;;;;5087514;28;20483;-70
2021/11/02 11:20:41;;;;;;;2.58;1.15;;;23.00;40.80;;;;;;5088014;28;20070;-69
2021/11/02 11:23:09;;;;;;;3.03;1.17;;;23.00;41.00;;;;;;5087772;28;20028;-70
2021/11/02 11:25:45;;;;;;;1.17;0.82;;;23.00;40.20;;;;;;5088542;28;20360;-69
2021/11/02 11:28:18;;;;;;;2.33;1.05;;;23.00;40.60;;;;;;5088301;28;20436;-69
2021/11/02 11:30:46;;;;;;;4.10;0.90;;;23.00;41.30;;;;;;5086834;28;20027;-69
2021/11/02 11:33:15;;;;;;;6.78;1.10;;;23.00;41.70;;;;;;5088674;28;20571;-69
2021/11/02 11:35:43;;;;;;;1.65;0.68;;;23.00;41.90;;;;;;5086240;28;20526;-70
2021/11/02 11:38:12;;;;;;;2.00;0.60;;;23.00;41.60;;;;;;5088480;28;20032;-70
2021/11/02 11:40:40;;;;;;;4.00;0.80;;;23.10;42.10;;;;;;5087402;28;20544;-70
2021/11/02 11:43:08;;;;;;;3.30;0.50;;;23.20;41.40;;;;;;5087860;28;20016;-70
2021/11/02 11:45:39;;;;;;;1.67;0.88;;;23.20;40.60;;;;;;5087430;28;20020;-71
2021/11/02 11:48:23;;;;;;;1.50;0.47;;;23.20;41.30;;;;;;5082201;28;20032;-71
2021/11/02 11:50:51;;;;;;;1.88;0.60;;;23.20;40.90;;;;;;5083241;28;20027;-71
2021/11/02 11:53:19;;;;;;;2.35;0.50;;;23.30;40.30;;;;;;5084825;28;20051;-71
2021/11/02 11:55:48;;;;;;;1.75;1.25;;;23.30;40.20;;;;;;5086318;28;20445;-70
2021/11/02 11:58:20;;;;;;;3.50;0.95;;;23.40;40.80;;;;;;5085216;28;20024;-71
2021/11/02 12:00:51;;;;;;;3.15;0.77;;;23.50;40.50;;;;;;5087159;28;20039;-73
2021/11/02 12:03:24;;;;;;;2.53;0.98;;;23.60;40.00;;;;;;5088247;28;20023;-69
2021/11/02 12:06:19;;;;;;;2.85;1.13;;;23.60;41.90;;;;;;5085490;28;20028;-71
2021/11/02 12:09:27;;;;;;;5.28;0.80;;;23.60;41.60;;;;;;5086569;28;20031;-69
2021/11/02 12:12:02;;;;;;;2.83;0.70;;;23.70;41.50;;;;;;5076740;28;20733;-70
2021/11/02 12:14:30;;;;;;;5.60;0.90;;;23.70;40.80;;;;;;5085359;28;20047;-71
2021/11/02 12:17:01;;;;;;;4.13;1.73;;;23.70;42.00;;;;;;5086525;28;20031;-71
2021/11/02 12:19:38;;;;;;;2.38;0.65;;;23.70;42.20;;;;;;5086633;28;20031;-70
2021/11/02 12:22:12;;;;;;;1.83;0.80;;;23.50;42.30;;;;;;5082934;28;20029;-71
2021/11/02 12:24:40;;;;;;;3.35;1.30;;;23.50;42.70;;;;;;5086996;28;20016;-71
2021/11/02 12:27:20;;;;;;;2.60;1.10;;;23.50;42.60;;;;;;5086124;28;20758;-70
2021/11/02 12:29:48;;;;;;;3.15;0.88;;;23.40;43.40;;;;;;5083810;28;20031;-71
2021/11/02 12:32:22;;;;;;;2.00;0.80;;;23.40;43.20;;;;;;5086459;28;20024;-70
2021/11/02 12:34:55;;;;;;;2.20;0.57;;;23.30;43.30;;;;;;5087127;28;20387;-70
2021/11/02 12:37:22;;;;;;;2.15;0.80;;;23.40;43.10;;;;;;5085311;28;20032;-71
2021/11/02 12:39:51;;;;;;;2.47;0.52;;;23.50;44.50;;;;;;5083286;28;20036;-70
2021/11/02 12:42:32;;;;;;;4.55;1.52;;;23.50;44.20;;;;;;5087898;28;20027;-70
2021/11/02 12:45:00;;;;;;;3.03;0.73;;;23.60;43.50;;;;;;5085255;28;20019;-70
2021/11/02 12:47:30;;;;;;;6.35;1.13;;;23.60;42.50;;;;;;5087679;28;20039;-70
2021/11/02 12:49:59;;;;;;;3.08;0.80;;;23.50;42.50;;;;;;5083610;28;20356;-70
2021/11/02 12:52:37;;;;;;;3.55;0.93;;;23.50;42.60;;;;;;5086565;28;20012;-69
2021/11/02 12:55:11;;;;;;;1.95;0.70;;;23.40;43.50;;;;;;5087575;28;20103;-71
2021/11/02 12:57:50;;;;;;;3.53;0.82;;;23.40;44.60;;;;;;5086453;28;20123;-71
2021/11/02 13:00:21;;;;;;;5.90;1.20;;;23.40;45.10;;;;;;5087284;28;20542;-70
2021/11/02 13:02:56;;;;;;;4.75;0.57;;;23.40;45.70;;;;;;5085514;28;20016;-71
2021/11/02 13:05:23;;;;;;;;;;;23.50;45.30;;;;;;5087222;28;20123;-70
2021/11/02 13:08:03;;;;;;;2.03;0.75;;;23.40;44.70;;;;;;5086610;28;19912;-69
2021/11/02 13:10:31;;;;;;;2.97;1.10;;;23.40;45.50;;;;;;5082458;28;20016;-69
2021/11/02 13:13:17;;;;;;;3.45;1.00;;;23.40;44.60;;;;;;5086903;28;20374;-70
2021/11/02 13:15:55;;;;;;;3.03;1.17;;;23.40;45.40;;;;;;5085117;28;20054;-71
2021/11/02 13:18:47;;;;;;;2.88;0.80;;;23.40;45.00;;;;;;5086806;28;20017;-70
2021/11/02 13:21:30;;;;;;;2.10;0.68;;;23.30;45.50;;;;;;5082808;28;20830;-70
2021/11/02 13:24:07;;;;;;;0.93;0.70;;;23.30;44.90;;;;;;5084891;28;20024;-71
2021/11/02 13:26:40;;;;;;;1.88;0.50;;;23.20;45.10;;;;;;5086837;28;20031;-70
2021/11/02 13:29:23;;;;;;;0.47;0.45;;;23.20;44.50;;;;;;5085900;28;20107;-69
2021/11/02 13:31:54;;;;;;;1.00;0.50;;;23.20;44.70;;;;;;5084726;28;20791;-71
2021/11/02 13:34:42;;;;;;;1.88;0.60;;;23.20;44.20;;;;;;5086701;28;20498;-70
2021/11/02 13:37:11;;;;;;;4.22;1.15;;;23.10;44.70;;;;;;5085115;28;20109;-70
2021/11/02 13:39:55;;;;;;;0.90;0.60;;;23.10;44.50;;;;;;5085543;28;20145;-70
2021/11/02 13:42:50;;;;;;;4.60;0.88;;;23.10;44.00;;;;;;5086037;28;20050;-70
2021/11/02 13:45:20;;;;;;;4.82;0.95;;;23.10;45.40;;;;;;5085854;28;20016;-71
2021/11/02 13:47:46;;;;;;;2.72;0.70;;;23.10;45.80;;;;;;5085753;28;20395;-71
2021/11/02 13:50:13;;;;;;;3.47;1.00;;;23.10;46.30;;;;;;5082977;28;20555;-70
2021/11/02 13:52:41;;;;;;;2.45;0.73;;;23.00;47.20;;;;;;5086862;28;20085;-70
2021/11/02 13:55:09;;;;;;;1.98;0.82;;;23.00;46.80;;;;;;5086287;28;20028;-70
2021/11/02 13:57:36;;;;;;;4.07;0.95;;;23.00;47.30;;;;;;5085566;28;20030;-70
2021/11/02 14:00:05;;;;;;;3.65;1.40;;;23.00;47.30;;;;;;5086817;28;20081;-70
2021/11/02 14:02:33;;;;;;;4.35;0.90;;;22.90;46.90;;;;;;5083988;28;20382;-71
2021/11/02 14:05:00;;;;;;;5.57;0.90;;;22.90;46.90;;;;;;5086641;28;20019;-70
2021/11/02 14:07:30;;;;;;;2.08;0.63;;;22.90;45.80;;;;;;5083856;28;20111;-70
2021/11/02 14:10:05;;;;;;;1.75;0.60;;;22.90;45.60;;;;;;5086803;28;20024;-70
2021/11/02 14:12:39;;;;;;;3.70;0.68;;;22.90;45.70;;;;;;5087047;28;20070;-71
2021/11/02 14:15:19;;;;;;;3.45;0.80;;;22.90;45.40;;;;;;5088961;28;20024;-70
2021/11/02 14:17:53;;;;;;;1.73;0.32;;;22.90;45.20;;;;;;5089626;28;20121;-71
2021/11/02 14:20:40;;;;;;;1.58;0.80;;;22.90;45.20;;;;;;5087658;28;20421;-70
2021/11/02 14:23:15;;;;;;;3.35;0.50;;;22.90;45.70;;;;;;5087560;28;20051;-70
2021/11/02 14:25:42;;;;;;;3.42;1.65;;;22.90;45.10;;;;;;5080833;28;20065;-70
2021/11/02 14:28:10;;;;;;;2.75;0.40;;;22.80;46.80;;;;;;5082841;28;20032;-72
2021/11/02 14:30:39;;;;;;;7.85;1.17;;;22.80;47.40;;;;;;5085921;28;20144;-65
2021/11/02 14:33:11;;;;;;;6.95;1.10;;;22.70;47.50;;;;;;5082363;28;20158;-70
2021/11/02 14:35:38;;;;;;;2.03;0.57;;;22.70;48.90;;;;;;5085718;28;20051;-70
2021/11/02 14:38:12;;;;;;;1.45;0.50;;;22.70;48.00;;;;;;5083948;28;20023;-70
2021/11/02 14:40:41;;;;;;;4.80;0.90;;;22.60;47.90;;;;;;5085166;28;20020;-69
2021/11/02 14:43:22;;;;;;;1.95;0.77;;;22.60;48.60;;;;;;5082845;28;20090;-71
2021/11/02 14:46:00;;;;;;;2.83;0.50;;;22.50;49.10;;;;;;5084362;28;21772;-70
2021/11/02 14:48:27;;;;;;;2.38;1.23;;;22.50;49.60;;;;;;5083189;28;20020;-66
2021/11/02 14:50:58;;;;;;;5.80;0.88;;;22.50;51.30;;;;;;5083752;28;20051;-69
2021/11/02 14:53:27;;;;;;;9.15;1.10;;;22.40;55.10;;;;;;5083630;28;21008;-70
2021/11/02 14:55:58;;;;;;;5.18;1.20;;;22.40;57.10;;;;;;5085606;28;20024;-67
2021/11/02 14:58:39;;;;;;;4.20;2.78;;;22.40;57.50;;;;;;5082411;28;20371;-73
2021/11/02 15:01:39;;;;;;;4.72;1.42;;;22.30;57.30;;;;;;5084731;28;20044;-74
2021/11/02 15:04:12;;;;;;;2.58;0.73;;;22.20;58.60;;;;;;5083887;28;20499;-73
2021/11/02 15:06:44;;;;;;;4.22;0.80;;;22.10;58.00;;;;;;5085668;28;20074;-67
2021/11/02 15:09:13;;;;;;;4.70;1.40;;;22.10;58.20;;;;;;5083208;28;20051;-73
2021/11/02 15:11:41;;;;;;;2.30;0.80;;;22.00;57.90;;;;;;5080157;28;20024;-74
2021/11/02 15:14:16;;;;;;;3.90;0.70;;;22.00;57.80;;;;;;5084648;28;20043;-75
2021/11/02 15:16:54;;;;;;;7.07;4.95;;;22.00;57.60;;;;;;5082674;28;20016;-74
2021/11/02 15:19:24;;;;;;;7.20;0.82;;;22.00;57.70;;;;;;5083305;28;20024;-72
2021/11/02 15:21:53;;;;;;;5.20;1.00;;;22.00;57.60;;;;;;5080978;28;20496;-72
2021/11/02 15:24:26;;;;;;;3.33;0.80;;;21.90;57.60;;;;;;5068903;28;20023;-74
2021/11/02 15:27:03;;;;;;;3.22;1.05;;;21.90;57.90;;;;;;5084783;28;20023;-72
2021/11/02 15:29:33;;;;;;;2.88;1.08;;;21.80;58.20;;;;;;5081307;28;20028;-72
2021/11/02 15:32:00;;;;;;;4.40;1.20;;;21.80;58.60;;;;;;5088208;28;20035;-71
2021/11/02 15:34:50;;;;;;;3.22;1.20;;;21.80;58.20;;;;;;5087767;28;20054;-71
2021/11/02 15:37:25;;;;;;;1.80;0.60;;;21.80;58.70;;;;;;5087901;28;20493;-71
2021/11/02 15:39:54;;;;;;;2.50;0.60;;;21.80;58.90;;;;;;5088224;28;20017;-71
2021/11/02 15:42:26;;;;;;;2.80;1.05;;;21.80;58.70;;;;;;5087042;28;20012;-71
2021/11/02 15:44:58;;;;;;;4.10;0.93;;;21.80;58.60;;;;;;5086062;28;20016;-71
2021/11/02 15:47:26;;;;;;;3.58;1.80;;;21.80;58.10;;;;;;5087711;28;20031;-72
2021/11/02 15:50:08;;;;;;;2.60;0.90;;;21.80;57.70;;;;;;5087639;28;20471;-75
2021/11/02 15:52:38;;;;;;;10.30;8.70;;;21.80;57.80;;;;;;5087198;28;20023;-72
2021/11/02 15:55:10;;;;;;;3.17;1.52;;;21.70;58.20;;;;;;5087149;28;20510;-72
2021/11/02 15:57:57;;;;;;;3.38;0.77;;;21.60;58.10;;;;;;5088230;28;20363;-75
2021/11/02 16:00:45;;;;;;;5.10;1.05;;;21.50;58.80;;;;;;5086840;28;20741;-70
2021/11/02 16:03:16;;;;;;;5.72;1.20;;;21.40;59.30;;;;;;5087235;28;20463;-72
2021/11/02 16:05:44;;;;;;;2.17;0.93;;;21.30;59.20;;;;;;5084109;28;20111;-68
2021/11/02 16:08:18;;;;;;;3.25;0.77;;;21.20;58.80;;;;;;5067875;28;21197;-68
2021/11/02 16:10:52;;;;;;;3.22;0.80;;;21.10;58.70;;;;;;5065205;28;20032;-67
2021/11/02 16:13:28;;;;;;;2.33;0.82;;;21.00;59.40;;;;;;5083124;28;20105;-67
2021/11/02 16:15:55;;;;;;;4.05;1.15;;;21.00;59.60;;;;;;5083411;28;20020;-68
2021/11/02 16:18:25;;;;;;;4.15;0.90;;;20.90;60.30;;;;;;5084424;28;20047;-69
2021/11/02 16:20:54;;;;;;;5.07;0.80;;;20.80;60.30;;;;;;5081314;28;20071;-67
2021/11/02 16:23:25;;;;;;;3.55;1.20;;;20.80;61.50;;;;;;5079842;28;20012;-70
2021/11/02 16:25:59;;;;;;;3.08;1.15;;;20.80;60.60;;;;;;5077528;28;20424;-70
2021/11/02 16:28:33;;;;;;;1.93;0.87;;;20.70;60.60;;;;;;5081390;28;20020;-68
2021/11/02 16:31:03;;;;;;;2.05;1.33;;;20.60;60.40;;;;;;5073605;28;20043;-66
2021/11/02 16:33:38;;;;;;;4.00;1.15;;;20.50;60.60;;;;;;5071673;28;20086;-69
2021/11/02 16:36:28;;;;;;;3.35;1.10;;;20.50;61.30;;;;;;5080804;28;20024;-70
2021/11/02 16:38:56;;;;;;;2.72;1.08;;;20.50;61.70;;;;;;5077925;28;20059;-67
2021/11/02 16:41:28;;;;;;;3.13;1.55;;;20.50;61.70;;;;;;5078905;28;20116;-68
2021/11/02 16:44:06;;;;;;;14.90;10.57;;;20.40;61.50;;;;;;5079372;28;20035;-67
2021/11/02 16:46:37;;;;;;;5.78;2.35;;;20.40;61.80;;;;;;5080293;28;20470;-67
2021/11/02 16:49:26;;;;;;;3.58;1.05;;;20.40;62.20;;;;;;5081266;28;20024;-66
2021/11/02 16:51:57;;;;;;;2.13;1.00;;;20.40;62.50;;;;;;5073540;28;20379;-70
2021/11/02 16:54:33;;;;;;;2.20;1.05;;;20.40;62.80;;;;;;5078507;28;20009;-68
2021/11/02 16:57:12;;;;;;;4.90;0.80;;;20.50;62.90;;;;;;5078481;28;20070;-72
2021/11/02 16:59:39;;;;;;;3.92;0.90;;;20.50;63.00;;;;;;5077363;28;20058;-71
2021/11/02 17:02:26;;;;;;;4.57;0.98;;;20.50;63.00;;;;;;5077953;28;20031;-72
2021/11/02 17:05:14;;;;;;;2.30;0.80;;;20.40;63.20;;;;;;5078266;28;20012;-71
2021/11/02 17:07:45;;;;;;;4.03;0.95;;;20.40;63.30;;;;;;5079231;28;20032;-70
2021/11/02 17:10:23;;;;;;;3.65;0.80;;;20.40;63.20;;;;;;5074672;28;20024;-67
2021/11/02 17:13:01;;;;;;;3.92;0.70;;;20.40;63.10;;;;;;5076521;28;20149;-67
2021/11/02 17:15:50;;;;;;;4.60;0.70;;;20.30;62.90;;;;;;5076970;28;20416;-68
2021/11/02 17:18:27;;;;;;;1.83;0.70;;;20.30;62.80;;;;;;5077100;28;20021;-69
2021/11/02 17:21:10;;;;;;;2.15;0.70;;;20.30;62.90;;;;;;5075925;28;20111;-70
2021/11/02 17:23:44;;;;;;;2.42;1.58;;;20.20;63.00;;;;;;5076146;28;20094;-71
2021/11/02 17:26:13;;;;;;;2.28;1.00;;;20.20;63.40;;;;;;5075861;28;20027;-71
2021/11/02 17:28:43;;;;;;;5.22;0.82;;;20.20;63.60;;;;;;5077301;28;20016;-73
2021/11/02 17:31:10;;;;;;;5.07;0.98;;;20.20;64.10;;;;;;5075236;28;20052;-72
2021/11/02 17:33:37;;;;;;;6.18;1.85;;;20.20;64.50;;;;;;5078541;28;20059;-72
2021/11/02 17:36:07;;;;;;;6.32;1.10;;;20.20;65.20;;;;;;5077657;28;20059;-70
2021/11/02 17:38:36;;;;;;;3.67;1.42;;;20.10;65.60;;;;;;5077073;28;20020;-69
2021/11/02 17:41:04;;;;;;;8.23;1.27;;;20.10;65.70;;;;;;5076538;28;20169;-69
2021/11/02 17:43:36;;;;;;;6.95;2.35;;;20.00;65.50;;;;;;5077440;28;20060;-70
2021/11/02 17:46:04;;;;;;;2.95;1.23;;;20.00;65.40;;;;;;5079464;28;20020;-70
2021/11/02 17:48:31;;;;;;;3.85;1.45;;;20.00;65.60;;;;;;5080992;28;20020;-68
2021/11/02 17:50:58;;;;;;;3.63;1.20;;;20.00;65.50;;;;;;5081071;28;20020;-69
2021/11/02 17:53:25;;;;;;;1.80;1.02;;;19.90;65.70;;;;;;5083077;28;20099;-69
2021/11/02 17:55:52;;;;;;;4.88;1.00;;;19.90;66.00;;;;;;5081770;28;20024;-68
2021/11/02 17:58:22;;;;;;;3.35;1.13;;;19.90;66.40;;;;;;5080285;28;20024;-71
2021/11/02 18:00:55;;;;;;;2.03;0.82;;;19.90;66.40;;;;;;5080144;28;20104;-71